Time;durP1;ratioP1;P1;durP2;ratioP2;P2;SDS_P1;SDS_P2;PMS_P1;PMS_P2;Temp;Humidity;BMP_temperature;BMP_pressure;BME280_temperature;BME280_humidity;BME280_pressure;Samples;Min_cycle;Max_cycle;Signal;HPM_P1;HPM_P2
2023/05/26 00:02:10;;;;;;;24.85;13.70;;;16.30;99.90;;;;;;4994156;28;20178;-80
2023/05/26 00:04:36;;;;;;;22.33;13.27;;;16.20;99.90;;;;;;5025290;28;20281;-80
2023/05/26 00:07:01;;;;;;;21.35;14.27;;;16.20;99.90;;;;;;4994308;28;20256;-80
2023/05/26 00:09:27;;;;;;;25.70;13.95;;;16.20;99.90;;;;;;5009165;28;20276;-80
2023/05/26 00:11:53;;;;;;;22.83;13.30;;;16.20;99.90;;;;;;5025643;28;20178;-81
2023/05/26 00:14:18;;;;;;;25.00;14.77;;;16.10;99.90;;;;;;4994159;28;20208;-81
2023/05/26 00:16:44;;;;;;;23.63;14.00;;;16.10;99.90;;;;;;4994347;28;20182;-80
2023/05/26 00:19:12;;;;;;;22.13;13.93;;;16.10;99.90;;;;;;4994297;28;20178;-80
2023/05/26 00:21:39;;;;;;;25.25;14.63;;;16.00;99.90;;;;;;5001612;28;20186;-81
2023/05/26 00:24:05;;;;;;;20.85;13.80;;;16.00;99.90;;;;;;5005085;28;20182;-81
2023/05/26 00:26:31;;;;;;;21.73;13.68;;;16.00;99.90;;;;;;5001099;28;20211;-81
2023/05/26 00:28:56;;;;;;;24.55;13.57;;;16.00;99.90;;;;;;4995402;28;20190;-81
2023/05/26 00:31:22;;;;;;;21.88;14.27;;;16.00;99.90;;;;;;4994064;28;20174;-81
2023/05/26 00:33:48;;;;;;;21.35;14.00;;;16.00;99.90;;;;;;4993804;28;20196;-81
2023/05/26 00:36:14;;;;;;;24.92;14.90;;;16.00;99.90;;;;;;4993480;28;20564;-81
2023/05/26 00:38:39;;;;;;;27.77;14.35;;;16.00;99.90;;;;;;4994285;28;20246;-81
2023/05/26 00:41:05;;;;;;;21.83;13.43;;;15.90;99.90;;;;;;5008911;28;20273;-81
2023/05/26 00:43:31;;;;;;;23.90;14.27;;;15.90;99.90;;;;;;5008717;28;20186;-81
2023/05/26 00:45:56;;;;;;;24.67;13.32;;;15.90;99.90;;;;;;4993791;28;20233;-80
2023/05/26 00:48:22;;;;;;;21.15;13.45;;;15.80;99.90;;;;;;5025275;28;20182;-80
2023/05/26 00:50:48;;;;;;;22.92;12.77;;;15.80;99.90;;;;;;4994166;28;20244;-80
2023/05/26 00:53:15;;;;;;;22.15;14.43;;;15.80;99.90;;;;;;4993528;28;20628;-81
2023/05/26 00:55:42;;;;;;;24.77;14.48;;;15.80;99.90;;;;;;5024547;28;20256;-81
2023/05/26 00:58:07;;;;;;;24.40;13.98;;;15.70;99.90;;;;;;4993684;28;20337;-81
2023/05/26 01:00:33;;;;;;;22.13;14.23;;;15.70;99.90;;;;;;4996405;28;20181;-80
2023/05/26 01:02:59;;;;;;;23.65;13.43;;;15.70;99.90;;;;;;4997076;28;20316;-81
2023/05/26 01:05:25;;;;;;;22.20;14.15;;;15.60;99.90;;;;;;4997362;28;20280;-81
2023/05/26 01:07:51;;;;;;;23.08;14.50;;;15.60;99.90;;;;;;4996636;28;20559;-81
2023/05/26 01:10:17;;;;;;;25.63;14.45;;;15.60;99.90;;;;;;5028278;28;20182;-81
2023/05/26 01:13:02;;;;;;;24.00;13.43;;;15.60;99.90;;;;;;4996976;28;20257;-81
2023/05/26 01:15:39;;;;;;;24.13;14.18;;;15.60;99.90;;;;;;4996826;28;20205;-81
2023/05/26 01:18:14;;;;;;;20.58;13.15;;;15.60;99.90;;;;;;4996844;28;20662;-81
2023/05/26 01:20:51;;;;;;;23.50;13.85;;;15.60;99.90;;;;;;4996985;28;20170;-81
2023/05/26 01:23:33;;;;;;;24.67;14.55;;;15.60;99.90;;;;;;4996709;28;20188;-81
2023/05/26 01:25:58;;;;;;;25.17;14.18;;;15.60;99.90;;;;;;4996776;28;20207;-80
2023/05/26 01:28:30;;;;;;;22.08;14.45;;;15.60;99.90;;;;;;4996668;28;20199;-80
2023/05/26 01:30:58;;;;;;;24.45;14.98;;;15.50;99.90;;;;;;4996410;28;20627;-81
2023/05/26 01:33:24;;;;;;;25.02;15.00;;;15.50;99.90;;;;;;4996407;28;20170;-81
2023/05/26 01:35:49;;;;;;;20.52;13.02;;;15.50;99.90;;;;;;4996188;28;20206;-81
2023/05/26 01:38:16;;;;;;;21.70;13.52;;;15.50;99.90;;;;;;5011391;28;20248;-81
2023/05/26 01:40:45;;;;;;;30.30;14.80;;;15.50;99.90;;;;;;4996423;28;20182;-81
2023/05/26 01:43:36;;;;;;;29.08;14.13;;;15.50;99.90;;;;;;4996267;28;20184;-81
2023/05/26 01:46:15;;;;;;;24.23;14.23;;;15.40;99.90;;;;;;5027728;28;20225;-81
2023/05/26 01:48:44;;;;;;;24.05;14.63;;;15.40;99.90;;;;;;4995133;28;20178;-81
2023/05/26 01:51:13;;;;;;;24.08;14.30;;;15.40;99.90;;;;;;4996131;28;20182;-81
2023/05/26 01:53:42;;;;;;;26.63;14.25;;;15.40;99.90;;;;;;4996119;28;20228;-81
2023/05/26 01:56:08;;;;;;;23.67;15.57;;;15.40;99.90;;;;;;4995957;28;20300;-81
2023/05/26 01:58:35;;;;;;;21.55;14.13;;;15.40;99.90;;;;;;5027526;28;20293;-81
2023/05/26 02:01:03;;;;;;;23.95;15.00;;;15.40;99.90;;;;;;4996163;28;20181;-81
2023/05/26 02:03:28;;;;;;;24.50;14.20;;;15.40;99.90;;;;;;5027339;28;20544;-81
2023/05/26 02:05:54;;;;;;;23.23;13.43;;;15.40;99.90;;;;;;4995896;28;20182;-81
2023/05/26 02:08:21;;;;;;;20.58;14.05;;;15.40;99.90;;;;;;5010773;28;20631;-81
2023/05/26 02:10:47;;;;;;;30.02;15.60;;;15.40;99.90;;;;;;4995188;28;20229;-81
2023/05/26 02:13:13;;;;;;;22.25;13.43;;;15.30;99.90;;;;;;4995620;28;20202;-81
2023/05/26 02:15:38;;;;;;;23.90;15.20;;;15.40;99.90;;;;;;4995757;28;20625;-81
2023/05/26 02:18:04;;;;;;;22.15;13.90;;;15.30;99.90;;;;;;4995718;28;20516;-81
2023/05/26 02:20:30;;;;;;;22.67;14.43;;;15.30;99.90;;;;;;5027063;28;20244;-81
2023/05/26 02:22:55;;;;;;;27.98;14.77;;;15.20;99.90;;;;;;5027096;28;20181;-80
2023/05/26 02:25:21;;;;;;;25.40;14.32;;;15.20;99.90;;;;;;4995409;28;20235;-81
2023/05/26 02:27:47;;;;;;;23.50;14.98;;;15.20;99.90;;;;;;4995249;28;20232;-81
2023/05/26 02:30:12;;;;;;;25.55;14.02;;;15.20;99.90;;;;;;4994048;28;20189;-81
2023/05/26 02:32:38;;;;;;;25.00;15.38;;;15.20;99.90;;;;;;4996414;28;20173;-80
2023/05/26 02:35:04;;;;;;;21.67;13.73;;;15.20;99.90;;;;;;5028557;28;20206;-80
2023/05/26 02:37:30;;;;;;;31.05;16.15;;;15.20;99.90;;;;;;4996594;28;20197;-80
2023/05/26 02:39:56;;;;;;;25.30;14.13;;;15.20;99.90;;;;;;4995085;28;20182;-81
2023/05/26 02:42:22;;;;;;;25.08;14.82;;;15.20;99.90;;;;;;4994895;28;20180;-81
2023/05/26 02:44:48;;;;;;;20.00;12.65;;;15.20;99.90;;;;;;4995529;28;20193;-81
2023/05/26 02:47:14;;;;;;;21.67;13.65;;;15.20;99.90;;;;;;4994736;28;20789;-82
2023/05/26 02:49:40;;;;;;;20.80;13.23;;;15.20;99.90;;;;;;4995139;28;20616;-81
2023/05/26 02:52:07;;;;;;;22.85;13.98;;;15.20;99.90;;;;;;4994611;28;20202;-81
2023/05/26 02:54:32;;;;;;;25.10;13.60;;;15.20;99.90;;;;;;4994832;28;20210;-81
2023/05/26 02:56:58;;;;;;;19.80;13.68;;;15.20;99.90;;;;;;4995013;28;20182;-81
2023/05/26 02:59:24;;;;;;;22.73;13.55;;;15.10;99.90;;;;;;4994425;28;20178;-81
2023/05/26 03:01:50;;;;;;;20.25;13.00;;;15.10;99.90;;;;;;4994882;28;20185;-81
2023/05/26 03:04:15;;;;;;;18.48;11.90;;;15.20;99.90;;;;;;4994761;28;20174;-81
2023/05/26 03:06:44;;;;;;;19.83;12.60;;;15.20;99.90;;;;;;4994734;28;20225;-81
2023/05/26 03:09:09;;;;;;;22.58;12.75;;;15.20;99.90;;;;;;4994463;28;20666;-80
2023/05/26 03:11:35;;;;;;;20.02;12.95;;;15.20;99.90;;;;;;4994453;28;20178;-81
2023/05/26 03:14:00;;;;;;;19.70;11.38;;;15.20;99.90;;;;;;4994341;28;20185;-81
2023/05/26 03:16:27;;;;;;;18.45;11.32;;;15.20;99.90;;;;;;4994560;28;20542;-81
2023/05/26 03:18:53;;;;;;;23.20;12.15;;;15.20;99.90;;;;;;5025860;28;20181;-81
2023/05/26 03:21:19;;;;;;;19.30;12.40;;;15.20;99.90;;;;;;5025950;28;20215;-81
2023/05/26 03:23:45;;;;;;;17.90;11.68;;;15.20;99.90;;;;;;5025858;28;20213;-80
2023/05/26 03:26:11;;;;;;;16.60;10.70;;;15.10;99.90;;;;;;4994731;28;20189;-81
2023/05/26 03:28:37;;;;;;;19.02;11.25;;;15.10;99.90;;;;;;4993970;28;20239;-80
2023/05/26 03:31:02;;;;;;;17.20;11.30;;;15.10;99.90;;;;;;4994191;28;20178;-81
2023/05/26 03:33:30;;;;;;;19.10;11.23;;;15.10;99.90;;;;;;4992327;28;20663;-81
2023/05/26 03:35:56;;;;;;;15.05;10.05;;;15.20;99.90;;;;;;5023991;28;20256;-80
2023/05/26 03:38:21;;;;;;;21.05;11.77;;;15.20;99.90;;;;;;4993271;28;20181;-81
2023/05/26 03:40:47;;;;;;;17.55;10.95;;;15.20;99.90;;;;;;5025102;28;20197;-80
2023/05/26 03:43:13;;;;;;;16.13;10.27;;;15.20;99.90;;;;;;4992966;28;20178;-81
2023/05/26 03:45:38;;;;;;;18.33;10.52;;;15.20;99.90;;;;;;4991630;28;20264;-80
2023/05/26 03:48:06;;;;;;;16.42;11.05;;;15.20;99.90;;;;;;4993517;28;20217;-81
2023/05/26 03:50:31;;;;;;;15.73;10.43;;;15.30;99.90;;;;;;4992465;28;20240;-80
2023/05/26 03:52:57;;;;;;;19.15;10.32;;;15.30;99.90;;;;;;4992685;28;20190;-80
2023/05/26 03:55:23;;;;;;;15.80;9.65;;;15.30;99.90;;;;;;5023570;28;20202;-80
2023/05/26 03:57:49;;;;;;;21.33;10.25;;;15.30;99.90;;;;;;5024144;28;20208;-80
2023/05/26 04:00:16;;;;;;;13.73;9.48;;;15.30;99.90;;;;;;4992704;28;20571;-80
2023/05/26 04:02:42;;;;;;;15.30;9.52;;;15.30;99.90;;;;;;4992218;28;20213;-80
2023/05/26 04:05:08;;;;;;;15.23;9.82;;;15.20;99.90;;;;;;5024104;28;20225;-80
2023/05/26 04:07:34;;;;;;;15.30;9.90;;;15.30;99.90;;;;;;4992405;28;20174;-80
2023/05/26 04:10:00;;;;;;;16.20;10.45;;;15.40;99.90;;;;;;4992685;28;20527;-81
2023/05/26 04:12:26;;;;;;;17.00;10.25;;;15.40;99.90;;;;;;4992429;28;20667;-80
2023/05/26 04:14:51;;;;;;;17.40;9.35;;;15.30;99.90;;;;;;5023024;28;20213;-80
2023/05/26 04:17:17;;;;;;;19.25;10.57;;;15.30;99.90;;;;;;5024709;28;20182;-80
2023/05/26 04:19:43;;;;;;;19.08;10.02;;;15.20;99.90;;;;;;4993142;28;20420;-81
2023/05/26 04:22:08;;;;;;;14.93;9.93;;;15.30;99.90;;;;;;4993904;28;20194;-79
2023/05/26 04:24:34;;;;;;;17.85;10.50;;;15.30;99.90;;;;;;4993042;28;20189;-79
2023/05/26 04:27:02;;;;;;;16.98;9.82;;;15.30;99.90;;;;;;4993069;28;20562;-79
2023/05/26 04:29:27;;;;;;;15.35;10.20;;;15.40;99.90;;;;;;4992901;28;20260;-80
2023/05/26 04:31:53;;;;;;;15.73;9.55;;;15.50;99.90;;;;;;4993071;28;20570;-79
2023/05/26 04:34:21;;;;;;;16.15;10.57;;;15.60;99.90;;;;;;5025246;28;20206;-79
2023/05/26 04:36:48;;;;;;;14.77;9.27;;;15.60;99.90;;;;;;5027496;28;20661;-79
2023/05/26 04:39:15;;;;;;;15.80;9.52;;;15.60;99.90;;;;;;4997168;28;20178;-79
2023/05/26 04:41:41;;;;;;;17.30;10.10;;;15.60;99.90;;;;;;4996676;28;20182;-80
2023/05/26 04:44:07;;;;;;;15.10;9.98;;;15.60;99.90;;;;;;4996547;28;20178;-80
2023/05/26 04:46:37;;;;;;;15.35;8.82;;;15.70;99.90;;;;;;4995073;28;20328;-79
2023/05/26 04:49:04;;;;;;;12.77;8.82;;;15.80;99.90;;;;;;4996654;28;20241;-79
2023/05/26 04:51:33;;;;;;;13.25;8.75;;;16.00;99.90;;;;;;4996428;28;20174;-79
2023/05/26 04:53:59;;;;;;;16.90;9.13;;;16.10;99.90;;;;;;4996339;28;20178;-78
2023/05/26 04:56:26;;;;;;;11.50;8.15;;;16.10;99.90;;;;;;4996481;28;20188;-79
2023/05/26 04:58:52;;;;;;;12.00;7.72;;;16.20;99.90;;;;;;4996179;28;20190;-80
2023/05/26 05:01:18;;;;;;;13.60;7.82;;;16.20;99.90;;;;;;4995167;28;20204;-80
2023/05/26 05:03:44;;;;;;;17.88;8.10;;;16.30;99.90;;;;;;5027634;28;20628;-78
2023/05/26 05:06:10;;;;;;;13.93;7.00;;;16.30;99.90;;;;;;5027580;28;20197;-78
2023/05/26 05:08:37;;;;;;;12.43;7.90;;;16.30;99.90;;;;;;4995854;28;20174;-79
2023/05/26 05:11:03;;;;;;;11.30;7.60;;;16.40;99.90;;;;;;5027784;28;20193;-78
2023/05/26 05:13:29;;;;;;;9.23;6.63;;;16.60;99.90;;;;;;5027884;28;20550;-79
2023/05/26 05:15:55;;;;;;;12.43;6.75;;;16.60;99.90;;;;;;4996759;28;20214;-79
2023/05/26 05:18:20;;;;;;;14.27;7.30;;;16.60;99.90;;;;;;4996771;28;20189;-79
2023/05/26 05:20:46;;;;;;;10.85;7.13;;;16.70;99.90;;;;;;4996873;28;20280;-80
2023/05/26 05:23:12;;;;;;;11.10;7.25;;;16.70;99.90;;;;;;4996698;28;20173;-79
2023/05/26 05:25:37;;;;;;;10.55;5.90;;;16.80;99.90;;;;;;4996309;28;20216;-80
2023/05/26 05:28:03;;;;;;;12.07;7.20;;;16.90;99.90;;;;;;4996477;28;20602;-79
2023/05/26 05:30:29;;;;;;;10.40;6.20;;;16.90;99.90;;;;;;5027855;28;20695;-79
2023/05/26 05:32:54;;;;;;;11.43;6.82;;;17.00;99.90;;;;;;4996157;28;20627;-80
2023/05/26 05:35:20;;;;;;;9.50;6.15;;;17.00;99.90;;;;;;4996553;28;20541;-80
2023/05/26 05:37:46;;;;;;;9.32;5.55;;;17.10;99.90;;;;;;4996138;28;20178;-80
2023/05/26 05:40:12;;;;;;;8.80;6.10;;;17.30;99.90;;;;;;5027991;28;20293;-80
2023/05/26 05:42:37;;;;;;;9.57;5.78;;;17.30;99.90;;;;;;4996280;28;20213;-80
2023/05/26 05:45:05;;;;;;;7.43;5.80;;;17.40;99.90;;;;;;4995969;28;20674;-80
2023/05/26 05:47:30;;;;;;;7.75;5.38;;;17.50;99.90;;;;;;5026845;28;20260;-82
2023/05/26 05:49:56;;;;;;;9.20;6.53;;;17.40;99.90;;;;;;4996000;28;20224;-81
2023/05/26 05:52:22;;;;;;;9.70;6.00;;;17.50;99.90;;;;;;4995777;28;20178;-80
2023/05/26 05:54:47;;;;;;;8.52;5.70;;;17.60;99.90;;;;;;5027155;28;20218;-80
2023/05/26 05:57:13;;;;;;;13.85;5.75;;;17.80;99.90;;;;;;4995429;28;20174;-79
2023/05/26 05:59:39;;;;;;;11.77;5.13;;;17.90;99.90;;;;;;4995394;28;20178;-80
2023/05/26 06:02:05;;;;;;;9.15;5.63;;;17.90;99.90;;;;;;5011138;28;20178;-80
2023/05/26 06:04:30;;;;;;;8.20;4.57;;;18.00;99.90;;;;;;5027316;28;20182;-81
2023/05/26 06:06:56;;;;;;;7.72;5.00;;;18.10;99.90;;;;;;5027529;28;20185;-80
2023/05/26 06:09:22;;;;;;;8.90;5.38;;;18.30;99.90;;;;;;4995593;28;20178;-80
2023/05/26 06:11:48;;;;;;;6.57;4.68;;;18.40;99.90;;;;;;5027300;28;20631;-80
2023/05/26 06:14:13;;;;;;;8.05;5.00;;;18.40;99.90;;;;;;5027387;28;20646;-80
2023/05/26 06:16:39;;;;;;;6.43;4.28;;;18.50;99.90;;;;;;5027196;28;20233;-81
2023/05/26 06:19:04;;;;;;;7.97;4.93;;;18.50;99.90;;;;;;5027411;28;20692;-81
2023/05/26 06:21:31;;;;;;;7.60;4.70;;;18.50;99.90;;;;;;4994731;28;20658;-81
2023/05/26 06:23:57;;;;;;;11.10;5.05;;;18.60;99.90;;;;;;4995748;28;20221;-80
2023/05/26 06:26:23;;;;;;;5.72;3.88;;;18.60;99.90;;;;;;4996063;28;20659;-80
2023/05/26 06:28:48;;;;;;;6.97;4.30;;;18.60;99.90;;;;;;4996295;28;20213;-81
2023/05/26 06:31:15;;;;;;;5.78;4.40;;;18.70;99.90;;;;;;5004609;28;20182;-81
2023/05/26 06:33:41;;;;;;;7.18;4.75;;;18.90;99.90;;;;;;5006715;28;20711;-80
2023/05/26 06:36:07;;;;;;;7.30;4.20;;;19.00;99.90;;;;;;5035977;28;20233;-80
2023/05/26 06:38:32;;;;;;;7.63;3.95;;;19.00;99.90;;;;;;5032797;28;20273;-81
2023/05/26 06:40:58;;;;;;;5.90;4.25;;;18.90;99.90;;;;;;5003970;28;20182;-81
2023/05/26 06:43:23;;;;;;;6.80;4.25;;;19.00;99.90;;;;;;5029981;28;20197;-81
2023/05/26 06:45:49;;;;;;;6.20;4.00;;;19.10;99.90;;;;;;5026751;28;20238;-81
2023/05/26 06:48:15;;;;;;;7.47;4.00;;;19.00;99.90;;;;;;4994596;28;20170;-81
2023/05/26 06:50:41;;;;;;;7.03;3.88;;;18.90;99.90;;;;;;4995228;28;20184;-80
2023/05/26 06:53:07;;;;;;;8.30;4.32;;;19.00;99.90;;;;;;4995362;28;20257;-81
2023/05/26 06:55:32;;;;;;;5.18;3.78;;;18.90;99.90;;;;;;4995031;28;20628;-82
2023/05/26 06:57:58;;;;;;;9.13;5.00;;;18.80;99.90;;;;;;5025981;28;20190;-81
2023/05/26 07:00:24;;;;;;;9.43;4.13;;;18.70;99.90;;;;;;5026350;28;20592;-82
2023/05/26 07:02:49;;;;;;;7.85;4.35;;;18.60;99.90;;;;;;4994745;28;20177;-81
2023/05/26 07:05:15;;;;;;;6.35;4.10;;;18.70;99.90;;;;;;4995477;28;20273;-80
2023/05/26 07:07:40;;;;;;;5.75;3.67;;;18.80;99.90;;;;;;5026783;28;20174;-80
2023/05/26 07:10:07;;;;;;;5.50;3.65;;;19.00;99.90;;;;;;5026318;28;20186;-81
2023/05/26 07:12:32;;;;;;;6.28;3.97;;;19.20;99.90;;;;;;4994655;28;20205;-81
2023/05/26 07:14:58;;;;;;;6.05;3.33;;;19.30;99.90;;;;;;4994731;28;20666;-81
2023/05/26 07:17:24;;;;;;;5.75;3.85;;;19.40;99.90;;;;;;4994900;28;20576;-81
2023/05/26 07:19:49;;;;;;;7.00;4.10;;;19.60;99.90;;;;;;4994263;28;20186;-82
2023/05/26 07:22:15;;;;;;;5.85;3.40;;;19.60;99.90;;;;;;4994844;28;20174;-81
2023/05/26 07:24:41;;;;;;;8.95;3.92;;;19.60;99.90;;;;;;4994531;28;20193;-81
2023/05/26 07:27:06;;;;;;;5.68;3.40;;;19.60;99.90;;;;;;4994232;28;20170;-81
2023/05/26 07:29:33;;;;;;;5.38;4.18;;;19.50;99.90;;;;;;5026014;28;20545;-81
2023/05/26 07:31:59;;;;;;;6.63;3.80;;;19.50;99.90;;;;;;4994757;28;20650;-80
2023/05/26 07:34:24;;;;;;;4.65;3.58;;;19.50;99.90;;;;;;4994196;28;20746;-81
2023/05/26 07:36:50;;;;;;;5.13;3.63;;;19.60;99.90;;;;;;4994363;28;20301;-81
2023/05/26 07:39:16;;;;;;;6.63;3.85;;;19.70;99.90;;;;;;5025863;28;20289;-80
2023/05/26 07:41:41;;;;;;;6.93;5.28;;;19.70;99.90;;;;;;4994398;28;20178;-80
2023/05/26 07:44:07;;;;;;;6.38;3.97;;;19.70;99.90;;;;;;4994482;28;20190;-80
2023/05/26 07:46:33;;;;;;;8.48;4.45;;;19.80;99.90;;;;;;4994129;28;20695;-80
2023/05/26 07:48:58;;;;;;;6.68;3.85;;;19.70;99.90;;;;;;4994171;28;20182;-80
2023/05/26 07:51:24;;;;;;;8.27;3.60;;;19.50;99.90;;;;;;4993784;28;20182;-80
2023/05/26 07:53:50;;;;;;;8.77;3.83;;;19.60;99.90;;;;;;4994145;28;20627;-80
2023/05/26 07:56:15;;;;;;;6.47;3.90;;;19.80;99.90;;;;;;4993980;28;20210;-80
2023/05/26 07:58:41;;;;;;;7.65;3.90;;;19.90;99.90;;;;;;4995235;28;20182;-80
2023/05/26 08:01:07;;;;;;;7.65;4.25;;;19.90;99.90;;;;;;4995197;28;20178;-80
2023/05/26 08:03:34;;;;;;;6.70;3.65;;;20.10;99.90;;;;;;4994559;28;20185;-81
2023/05/26 08:06:00;;;;;;;3.63;2.80;;;20.20;99.90;;;;;;4994096;28;20585;-80
2023/05/26 08:08:25;;;;;;;3.45;2.83;;;20.20;99.90;;;;;;4994493;28;20224;-80
2023/05/26 08:10:51;;;;;;;5.72;3.70;;;20.40;99.90;;;;;;4997908;28;20537;-81
2023/05/26 08:13:17;;;;;;;5.00;3.75;;;20.50;99.90;;;;;;4997819;28;20182;-81
2023/05/26 08:15:42;;;;;;;10.38;3.38;;;20.40;99.90;;;;;;5029914;28;20559;-81
2023/05/26 08:18:08;;;;;;;4.78;3.47;;;20.50;99.90;;;;;;5029572;28;20193;-81
2023/05/26 08:20:34;;;;;;;6.68;3.67;;;20.60;99.90;;;;;;4998121;28;20181;-81
2023/05/26 08:23:00;;;;;;;6.63;3.53;;;20.60;99.90;;;;;;4997518;28;20177;-82
2023/05/26 08:25:26;;;;;;;5.38;3.70;;;20.70;99.90;;;;;;4997855;28;20252;-81
2023/05/26 08:27:52;;;;;;;4.55;3.63;;;20.70;99.90;;;;;;4997045;28;20586;-81
2023/05/26 08:30:18;;;;;;;4.72;2.97;;;20.70;99.90;;;;;;4998061;28;20544;-81
2023/05/26 08:32:43;;;;;;;3.13;2.70;;;20.50;99.90;;;;;;5001654;28;20178;-80
2023/05/26 08:35:09;;;;;;;5.22;3.75;;;20.50;99.90;;;;;;5006871;28;20213;-81
2023/05/26 08:37:35;;;;;;;6.78;3.83;;;20.70;99.90;;;;;;5011494;28;20674;-81
2023/05/26 08:40:02;;;;;;;6.43;3.65;;;21.00;99.90;;;;;;5009019;28;20635;-82
2023/05/26 08:42:33;;;;;;;6.28;3.70;;;21.10;99.90;;;;;;4998750;28;20688;-81
2023/05/26 08:44:59;;;;;;;6.68;3.95;;;21.30;99.90;;;;;;4997779;28;20257;-81
2023/05/26 08:47:26;;;;;;;5.70;3.45;;;21.40;99.90;;;;;;4997517;28;20733;-81
2023/05/26 08:49:56;;;;;;;4.00;2.88;;;21.40;99.70;;;;;;4997693;28;20174;-81
2023/05/26 08:52:22;;;;;;;16.27;5.53;;;21.50;98.50;;;;;;4997689;28;20178;-81
2023/05/26 08:54:49;;;;;;;7.35;3.47;;;21.60;98.60;;;;;;4997009;28;20551;-81
2023/05/26 08:57:17;;;;;;;13.05;3.90;;;21.60;98.20;;;;;;4997374;28;20209;-82
2023/05/26 08:59:45;;;;;;;5.38;3.70;;;21.70;98.20;;;;;;5029183;28;20224;-81
2023/05/26 09:02:11;;;;;;;9.10;4.32;;;21.80;99.00;;;;;;4997112;28;20264;-82
2023/05/26 09:04:37;;;;;;;4.93;3.88;;;22.00;98.40;;;;;;5028941;28;20182;-81
2023/05/26 09:07:06;;;;;;;7.15;3.70;;;22.00;96.00;;;;;;4997157;28;20178;-82
2023/05/26 09:09:32;;;;;;;5.03;3.47;;;22.10;97.30;;;;;;4997383;28;20170;-81
2023/05/26 09:11:58;;;;;;;5.15;3.55;;;22.30;97.60;;;;;;4997352;28;20227;-80
2023/05/26 09:14:24;;;;;;;4.22;3.00;;;22.30;94.60;;;;;;5028201;28;20320;-81
2023/05/26 09:16:50;;;;;;;6.13;3.35;;;22.50;96.10;;;;;;5028396;28;20186;-80
2023/05/26 09:19:17;;;;;;;7.35;4.35;;;22.60;95.40;;;;;;4996704;28;20173;-80
2023/05/26 09:21:51;;;;;;;3.95;3.38;;;22.20;94.30;;;;;;4996629;28;20647;-81
2023/05/26 09:24:18;;;;;;;3.78;3.28;;;22.30;95.10;;;;;;4996651;28;20279;-81
2023/05/26 09:26:46;;;;;;;5.80;3.63;;;22.40;93.90;;;;;;4996686;28;20178;-80
2023/05/26 09:29:12;;;;;;;6.28;4.13;;;22.30;93.60;;;;;;4996641;28;20170;-81
2023/05/26 09:31:46;;;;;;;6.95;3.05;;;22.20;93.50;;;;;;4995823;28;20182;-81
2023/05/26 09:34:15;;;;;;;4.00;3.17;;;22.00;94.10;;;;;;4996565;28;20178;-80
2023/05/26 09:36:41;;;;;;;4.75;3.20;;;21.90;93.70;;;;;;4996771;28;20265;-80
2023/05/26 09:39:12;;;;;;;5.22;3.35;;;21.80;94.70;;;;;;4996280;28;20253;-81
2023/05/26 09:41:39;;;;;;;3.88;3.13;;;22.10;94.50;;;;;;4995597;28;20210;-81
2023/05/26 09:44:12;;;;;;;4.18;2.97;;;22.50;93.90;;;;;;4996472;28;20178;-81
2023/05/26 09:46:39;;;;;;;3.78;3.35;;;22.60;92.80;;;;;;4996585;28;20242;-81
2023/05/26 09:49:13;;;;;;;4.25;3.22;;;22.60;94.00;;;;;;4996336;28;20205;-81
2023/05/26 09:51:40;;;;;;;5.72;3.65;;;22.30;93.30;;;;;;4995556;28;20182;-81
2023/05/26 09:54:08;;;;;;;5.40;3.15;;;22.10;94.20;;;;;;4994793;28;20182;-81
2023/05/26 09:56:36;;;;;;;4.25;3.20;;;22.00;93.90;;;;;;5027366;28;20186;-80
2023/05/26 09:59:05;;;;;;;8.15;3.63;;;22.00;94.40;;;;;;4996203;28;20185;-80
2023/05/26 10:01:34;;;;;;;4.35;3.53;;;22.00;94.40;;;;;;4996233;28;20170;-80
2023/05/26 10:04:05;;;;;;;6.15;3.60;;;21.90;95.40;;;;;;4996196;28;20193;-81
2023/05/26 10:06:32;;;;;;;4.80;3.40;;;21.90;95.20;;;;;;5027631;28;20714;-80
2023/05/26 10:08:59;;;;;;;4.25;3.22;;;21.80;94.20;;;;;;4995693;28;20620;-85
2023/05/26 10:11:29;;;;;;;5.07;3.45;;;21.90;96.00;;;;;;4995961;28;20221;-81
2023/05/26 10:13:57;;;;;;;4.13;3.38;;;22.00;95.70;;;;;;4996432;28;20174;-80
2023/05/26 10:16:23;;;;;;;4.90;3.50;;;22.10;96.40;;;;;;4995984;28;20241;-80
2023/05/26 10:18:49;;;;;;;5.18;3.25;;;22.00;94.50;;;;;;5011383;28;20218;-80
2023/05/26 10:21:20;;;;;;;4.68;3.95;;;21.80;95.20;;;;;;5027334;28;20533;-80
2023/05/26 10:24:16;;;;;;;6.93;3.20;;;21.60;94.40;;;;;;4995512;28;20174;-80
2023/05/26 10:26:56;;;;;;;5.63;3.30;;;21.70;95.60;;;;;;4993570;28;20186;-81
2023/05/26 10:29:47;;;;;;;4.60;3.40;;;21.70;94.70;;;;;;4995491;28;20174;-81
2023/05/26 10:32:41;;;;;;;5.10;3.17;;;21.90;94.70;;;;;;4992840;28;20240;-81
2023/05/26 10:35:23;;;;;;;5.72;3.58;;;22.20;94.90;;;;;;4995476;28;20198;-80
2023/05/26 10:38:02;;;;;;;4.97;3.30;;;22.20;94.50;;;;;;4995459;28;20229;-80
2023/05/26 10:40:54;;;;;;;4.53;3.20;;;22.30;93.80;;;;;;5026985;28;20188;-80
2023/05/26 10:43:25;;;;;;;4.65;3.50;;;22.10;93.30;;;;;;4993353;28;20194;-80
2023/05/26 10:45:55;;;;;;;3.95;2.80;;;21.90;93.70;;;;;;4995242;28;20239;-80
2023/05/26 10:48:24;;;;;;;3.97;2.95;;;21.70;93.60;;;;;;4995095;28;20170;-81
2023/05/26 10:50:59;;;;;;;4.70;3.55;;;21.60;94.20;;;;;;4995027;28;20269;-80
2023/05/26 10:53:39;;;;;;;4.47;3.17;;;21.40;94.20;;;;;;4995185;28;20219;-80
2023/05/26 10:56:08;;;;;;;4.63;3.22;;;21.20;94.20;;;;;;4995133;28;20204;-80
2023/05/26 10:58:45;;;;;;;5.68;3.30;;;21.00;95.10;;;;;;4994980;28;20177;-80
2023/05/26 11:01:12;;;;;;;4.20;3.20;;;20.90;94.90;;;;;;4993955;28;20578;-80
2023/05/26 11:03:45;;;;;;;5.63;3.20;;;21.00;95.90;;;;;;4994601;28;20173;-80
2023/05/26 11:06:13;;;;;;;9.98;4.47;;;21.10;96.80;;;;;;4994968;28;20185;-80
2023/05/26 11:08:50;;;;;;;7.00;3.13;;;21.40;96.00;;;;;;4994816;28;20189;-80
2023/05/26 11:11:52;;;;;;;4.10;3.20;;;21.60;95.00;;;;;;4994789;28;20212;-80
2023/05/26 11:14:23;;;;;;;4.60;3.03;;;21.60;94.40;;;;;;4994560;28;20644;-81
2023/05/26 11:16:50;;;;;;;5.05;3.10;;;21.50;94.10;;;;;;4995420;28;20166;-80
2023/05/26 11:19:27;;;;;;;4.47;3.05;;;21.40;94.90;;;;;;4994337;28;20584;-80
2023/05/26 11:21:53;;;;;;;6.68;3.53;;;21.60;93.80;;;;;;4994588;28;20185;-80
2023/05/26 11:24:18;;;;;;;7.35;4.28;;;21.70;94.40;;;;;;5025794;28;20178;-80
2023/05/26 11:26:44;;;;;;;4.35;3.20;;;21.90;94.30;;;;;;4994307;28;20656;-80
2023/05/26 11:29:10;;;;;;;5.88;3.35;;;21.80;94.40;;;;;;5026148;28;20642;-81
2023/05/26 11:31:36;;;;;;;7.13;3.22;;;21.80;94.10;;;;;;5009212;28;20189;-80
2023/05/26 11:34:02;;;;;;;5.60;3.10;;;21.80;93.70;;;;;;5025639;28;20182;-80
2023/05/26 11:36:28;;;;;;;5.05;3.75;;;21.70;94.10;;;;;;4994361;28;20217;-80
2023/05/26 11:38:59;;;;;;;3.85;2.70;;;21.80;94.40;;;;;;4994691;28;20178;-81
2023/05/26 11:41:26;;;;;;;6.43;2.85;;;22.10;94.30;;;;;;4994245;28;20166;-80
2023/05/26 11:43:53;;;;;;;4.95;3.40;;;22.30;93.00;;;;;;4994363;28;20182;-81
2023/05/26 11:46:20;;;;;;;4.43;3.08;;;22.70;93.80;;;;;;4993999;28;20249;-81
2023/05/26 11:48:46;;;;;;;5.22;3.75;;;23.00;92.50;;;;;;4994167;28;20178;-80
2023/05/26 11:51:19;;;;;;;7.18;3.45;;;23.00;91.60;;;;;;4994111;28;20178;-81
2023/05/26 11:53:46;;;;;;;4.15;2.95;;;23.00;92.20;;;;;;4994451;28;20162;-81
2023/05/26 11:56:14;;;;;;;3.85;3.33;;;23.00;91.40;;;;;;5026018;28;20237;-81
2023/05/26 11:58:46;;;;;;;4.75;3.38;;;23.20;92.00;;;;;;4994169;28;20182;-80
2023/05/26 12:01:12;;;;;;;5.35;3.22;;;23.00;90.30;;;;;;4994165;28;20268;-80
2023/05/26 12:03:59;;;;;;;9.30;5.70;;;22.70;91.90;;;;;;4994034;28;20265;-81
2023/05/26 12:06:26;;;;;;;5.97;3.70;;;22.70;91.90;;;;;;4994021;28;20185;-81
2023/05/26 12:09:10;;;;;;;4.57;2.88;;;22.50;90.90;;;;;;4994053;28;20212;-81
2023/05/26 12:11:37;;;;;;;4.88;3.45;;;22.40;90.70;;;;;;4993896;28;20177;-80
2023/05/26 12:14:11;;;;;;;7.90;3.22;;;22.10;90.40;;;;;;5025563;28;20182;-80
2023/05/26 12:16:39;;;;;;;3.28;2.97;;;21.90;90.80;;;;;;5025112;28;20230;-82
2023/05/26 12:19:07;;;;;;;5.55;3.40;;;22.00;90.60;;;;;;4993989;28;20182;-80
2023/05/26 12:21:44;;;;;;;5.13;3.10;;;21.90;91.00;;;;;;4993675;28;20662;-81
2023/05/26 12:24:11;;;;;;;6.22;4.03;;;21.70;91.50;;;;;;4994103;28;20170;-81
2023/05/26 12:26:37;;;;;;;5.95;3.15;;;21.30;92.10;;;;;;4993688;28;20186;-79
2023/05/26 12:29:13;;;;;;;7.90;3.38;;;21.10;93.00;;;;;;4993838;28;20177;-80
2023/05/26 12:31:45;;;;;;;5.65;3.20;;;21.00;93.90;;;;;;4993725;28;20225;-82
2023/05/26 12:34:13;;;;;;;4.63;3.08;;;20.70;94.60;;;;;;4993920;28;20162;-80
2023/05/26 12:36:39;;;;;;;6.43;3.45;;;20.60;95.40;;;;;;4993568;28;20222;-79
2023/05/26 12:39:05;;;;;;;6.25;4.13;;;20.60;95.50;;;;;;4993694;28;20178;-80
2023/05/26 12:41:31;;;;;;;4.70;3.00;;;20.60;95.60;;;;;;4993497;28;20620;-80